Time;durP1;ratioP1;P1;durP2;ratioP2;P2;SDS_P1;SDS_P2;PMS_P1;PMS_P2;Temp;Humidity;BMP_temperature;BMP_pressure;BME280_temperature;BME280_humidity;BME280_pressure;Samples;Min_cycle;Max_cycle;Signal;HPM_P1;HPM_P2
2021/05/14 00:01:24;;;;;;;;;;;;;;;21.70;30.38;97166.03;5120567;28;1959;-75
2021/05/14 00:03:49;;;;;;;;;;;;;;;21.80;30.49;97173.31;5120657;28;943;-75
2021/05/14 00:06:15;;;;;;;;;;;;;;;21.78;30.47;97175.84;5121018;28;1024;-75
2021/05/14 00:08:41;;;;;;;;;;;;;;;21.84;30.41;97168.28;5120825;28;799;-75
2021/05/14 00:11:06;;;;;;;;;;;;;;;21.63;30.29;97172.00;5120943;28;672;-75
2021/05/14 00:13:32;;;;;;;;;;;;;;;21.84;30.28;97162.63;5120789;28;716;-75
2021/05/14 00:15:57;;;;;;;;;;;;;;;21.70;30.06;97168.88;5120395;28;971;-75
2021/05/14 00:18:23;;;;;;;;;;;;;;;21.73;30.10;97170.00;5120678;28;809;-75
2021/05/14 00:20:48;;;;;;;;;;;;;;;21.72;30.35;97162.75;5120571;28;1917;-75
2021/05/14 00:23:14;;;;;;;;;;;;;;;21.74;29.98;97169.53;5120926;28;665;-75
2021/05/14 00:25:39;;;;;;;;;;;;;;;21.67;30.18;97169.81;5120699;28;652;-75
2021/05/14 00:28:05;;;;;;;;;;;;;;;21.62;30.54;97167.59;5120640;28;645;-75
2021/05/14 00:30:30;;;;;;;;;;;;;;;21.61;30.22;97171.69;5120290;28;918;-75
2021/05/14 00:32:56;;;;;;;;;;;;;;;21.71;30.08;97181.78;5102712;28;1462;-75
2021/05/14 00:35:21;;;;;;;;;;;;;;;21.71;29.96;97176.13;5120495;28;852;-75
2021/05/14 00:37:47;;;;;;;;;;;;;;;21.69;30.15;97189.16;5120834;28;685;-76
2021/05/14 00:40:12;;;;;;;;;;;;;;;21.65;30.35;97183.63;5120043;28;1898;-75
2021/05/14 00:42:38;;;;;;;;;;;;;;;21.70;30.11;97185.84;5120506;28;617;-75
2021/05/14 00:45:04;;;;;;;;;;;;;;;21.63;30.06;97186.16;5120145;28;915;-75
2021/05/14 00:47:39;;;;;;;;;;;;;;;21.74;29.86;97192.16;5102447;28;1405;-75
2021/05/14 00:50:05;;;;;;;;;;;;;;;21.70;29.84;97174.53;5122739;28;1020;-75
2021/05/14 00:52:30;;;;;;;;;;;;;;;21.76;30.06;97178.34;5107479;28;1339;-75
2021/05/14 00:54:55;;;;;;;;;;;;;;;21.71;29.95;97175.31;5107068;28;641;-75
2021/05/14 00:57:21;;;;;;;;;;;;;;;21.64;30.08;97182.06;5124463;28;681;-75
2021/05/14 00:59:47;;;;;;;;;;;;;;;21.64;29.98;97186.94;5124241;28;1203;-75
2021/05/14 01:02:13;;;;;;;;;;;;;;;21.67;29.98;97178.31;5123884;28;1956;-75
2021/05/14 01:04:38;;;;;;;;;;;;;;;21.92;29.73;97173.69;5124249;28;824;-75
2021/05/14 01:07:07;;;;;;;;;;;;;;;21.73;30.05;97179.28;5124382;28;670;-75
2021/05/14 01:09:37;;;;;;;;;;;;;;;21.71;29.88;97170.47;5123651;28;1115;-75
2021/05/14 01:12:09;;;;;;;;;;;;;;;21.78;29.91;97175.84;5106746;28;1818;-75
2021/05/14 01:14:35;;;;;;;;;;;;;;;21.73;30.14;97167.16;5124076;28;876;-75
2021/05/14 01:17:00;;;;;;;;;;;;;;;21.83;30.03;97166.72;5123876;28;860;-75
2021/05/14 01:19:25;;;;;;;;;;;;;;;21.71;29.82;97158.31;5123978;28;1034;-75
2021/05/14 01:21:51;;;;;;;;;;;;;;;21.59;30.29;97165.69;5123762;28;1898;-76
2021/05/14 01:24:17;;;;;;;;;;;;;;;21.46;30.60;97156.50;5123961;28;657;-75
2021/05/14 01:26:45;;;;;;;;;;;;;;;21.69;30.30;97158.00;5106338;28;622;-75
2021/05/14 01:29:12;;;;;;;;;;;;;;;21.78;30.00;97152.41;5123709;28;881;-75
2021/05/14 01:31:37;;;;;;;;;;;;;;;21.63;30.25;97140.84;5123504;28;799;-75
2021/05/14 01:34:04;;;;;;;;;;;;;;;21.66;30.11;97145.59;5106142;28;1015;-75
2021/05/14 01:36:29;;;;;;;;;;;;;;;21.78;30.06;97144.69;5123976;28;618;-75
2021/05/14 01:38:55;;;;;;;;;;;;;;;21.61;30.55;97143.38;5123693;28;656;-74
2021/05/14 01:41:20;;;;;;;;;;;;;;;21.55;30.63;97139.56;5123717;28;1901;-75
2021/05/14 01:43:46;;;;;;;;;;;;;;;21.58;30.67;97144.28;5123160;28;946;-74
2021/05/14 01:46:11;;;;;;;;;;;;;;;21.59;30.37;97152.31;5123190;28;846;-74
2021/05/14 01:48:37;;;;;;;;;;;;;;;21.61;30.28;97142.59;5105896;28;1228;-75
2021/05/14 01:51:08;;;;;;;;;;;;;;;21.55;30.45;97139.56;5123517;28;681;-75
2021/05/14 01:53:34;;;;;;;;;;;;;;;21.66;30.20;97144.78;5123373;28;700;-76
2021/05/14 01:55:59;;;;;;;;;;;;;;;21.65;30.08;97149.66;5123265;28;653;-75
2021/05/14 01:58:25;;;;;;;;;;;;;;;21.75;29.92;97147.66;5123168;28;1136;-76
2021/05/14 02:00:50;;;;;;;;;;;;;;;21.73;29.91;97145.28;5122123;28;1971;-75
2021/05/14 02:03:16;;;;;;;;;;;;;;;21.63;30.06;97145.72;5123121;28;911;-75
2021/05/14 02:05:41;;;;;;;;;;;;;;;21.57;30.50;97151.22;5123148;28;629;-75
2021/05/14 02:08:09;;;;;;;;;;;;;;;21.65;30.38;97148.88;5123244;28;716;-75
2021/05/14 02:10:35;;;;;;;;;;;;;;;21.72;29.88;97152.22;5123059;28;629;-75
2021/05/14 02:13:00;;;;;;;;;;;;;;;21.76;29.72;97150.03;5122629;28;860;-75
2021/05/14 02:15:26;;;;;;;;;;;;;;;21.62;30.23;97156.25;5123122;28;941;-75
2021/05/14 02:17:51;;;;;;;;;;;;;;;21.64;30.12;97159.41;5122877;28;999;-75
2021/05/14 02:20:17;;;;;;;;;;;;;;;21.56;30.30;97164.59;5122793;28;1972;-75
2021/05/14 02:22:42;;;;;;;;;;;;;;;21.70;30.05;97163.19;5122929;28;716;-75
2021/05/14 02:25:08;;;;;;;;;;;;;;;21.42;30.24;97164.34;5122805;28;677;-75
2021/05/14 02:27:34;;;;;;;;;;;;;;;21.61;30.27;97166.03;5122378;28;912;-75
2021/05/14 02:30:00;;;;;;;;;;;;;;;21.77;29.69;97174.25;5122365;28;875;-75
2021/05/14 02:32:26;;;;;;;;;;;;;;;21.75;29.53;97182.41;5105328;28;908;-75
2021/05/14 02:34:51;;;;;;;;;;;;;;;21.65;29.81;97194.94;5122742;28;707;-75
2021/05/14 02:37:16;;;;;;;;;;;;;;;21.62;29.88;97184.56;5122556;28;565;-75
2021/05/14 02:39:42;;;;;;;;;;;;;;;21.62;30.00;97190.25;5122522;28;677;-75
2021/05/14 02:42:08;;;;;;;;;;;;;;;21.46;29.91;97188.44;5122037;28;1977;-75
2021/05/14 02:44:34;;;;;;;;;;;;;;;21.67;29.98;97192.47;5122019;28;873;-76
2021/05/14 02:47:00;;;;;;;;;;;;;;;21.72;29.75;97194.69;5122289;28;979;-75
2021/05/14 02:49:25;;;;;;;;;;;;;;;21.60;29.71;97195.56;5122359;28;629;-75
2021/05/14 02:51:57;;;;;;;;;;;;;;;21.61;29.78;97196.38;5122182;28;676;-75
2021/05/14 02:54:23;;;;;;;;;;;;;;;21.54;30.01;97194.59;5122216;28;558;-75
2021/05/14 02:56:48;;;;;;;;;;;;;;;21.53;29.86;97193.03;5121968;28;882;-75
2021/05/14 02:59:14;;;;;;;;;;;;;;;21.56;29.69;97194.94;5121660;28;996;-75
2021/05/14 03:01:39;;;;;;;;;;;;;;;21.57;29.70;97202.16;5121904;28;1905;-75
2021/05/14 03:04:05;;;;;;;;;;;;;;;21.69;29.59;97204.09;5122068;28;824;-75
2021/05/14 03:06:30;;;;;;;;;;;;;;;21.59;29.76;97196.81;5121916;28;807;-75
2021/05/14 03:08:56;;;;;;;;;;;;;;;21.58;29.79;97200.91;5121914;28;649;-75
2021/05/14 03:11:21;;;;;;;;;;;;;;;21.78;29.42;97192.81;5121588;28;855;-75
2021/05/14 03:13:47;;;;;;;;;;;;;;;21.69;29.83;97195.59;5121518;28;819;-75
2021/05/14 03:16:12;;;;;;;;;;;;;;;21.75;29.39;97196.56;5121619;28;955;-75
2021/05/14 03:18:37;;;;;;;;;;;;;;;21.70;29.91;97202.84;5121816;28;677;-75
2021/05/14 03:21:03;;;;;;;;;;;;;;;21.58;29.86;97200.91;5104085;28;1905;-75
2021/05/14 03:23:28;;;;;;;;;;;;;;;21.62;29.92;97195.91;5121646;28;697;-75
2021/05/14 03:25:54;;;;;;;;;;;;;;;21.53;29.97;97193.03;5121348;28;955;-75
2021/05/14 03:28:19;;;;;;;;;;;;;;;21.51;30.23;97201.19;5121229;28;942;-75
2021/05/14 03:30:45;;;;;;;;;;;;;;;21.66;29.66;97193.72;5121343;28;918;-75
2021/05/14 03:33:11;;;;;;;;;;;;;;;21.54;30.01;97205.91;5103908;28;665;-75
2021/05/14 03:35:36;;;;;;;;;;;;;;;21.68;29.76;97199.69;5103309;28;867;-75
2021/05/14 03:38:02;;;;;;;;;;;;;;;21.68;30.11;97207.41;5103648;28;669;-75
2021/05/14 03:42:56;;;;;;;;;;;;;;;21.63;29.92;97208.00;5121096;28;844;-75
2021/05/14 03:45:21;;;;;;;;;;;;;;;21.72;29.78;97200.34;5103971;28;836;-75
2021/05/14 03:47:47;;;;;;;;;;;;;;;21.64;29.90;97204.72;5121445;28;730;-75
2021/05/14 03:50:13;;;;;;;;;;;;;;;21.67;29.86;97212.28;5121254;28;666;-75
2021/05/14 03:52:38;;;;;;;;;;;;;;;21.65;29.71;97216.81;5121210;28;681;-75
2021/05/14 03:55:05;;;;;;;;;;;;;;;21.56;29.96;97218.38;5120743;28;869;-75
2021/05/14 03:57:30;;;;;;;;;;;;;;;21.61;30.06;97216.97;5120824;28;833;-75
2021/05/14 03:59:56;;;;;;;;;;;;;;;21.60;29.95;97221.03;5120817;28;1086;-75
2021/05/14 04:02:21;;;;;;;;;;;;;;;21.58;30.31;97224.34;5120907;28;1993;-75
2021/05/14 04:04:47;;;;;;;;;;;;;;;21.57;30.37;97233.31;5121047;28;660;-75
2021/05/14 04:07:13;;;;;;;;;;;;;;;21.77;29.66;97230.91;5120877;28;630;-75
2021/05/14 04:09:40;;;;;;;;;;;;;;;21.71;29.71;97232.75;5120624;28;915;-74
2021/05/14 04:15:07;;;;;;;;;;;;;;;21.71;29.85;97238.41;5058879;28;1015;-75
2021/05/14 04:17:33;;;;;;;;;;;;;;;21.72;29.82;97237.16;5108123;28;887;-75
2021/05/14 04:19:58;;;;;;;;;;;;;;;21.70;29.82;97236.81;5120768;28;638;-75
2021/05/14 04:22:24;;;;;;;;;;;;;;;21.62;29.99;97240.41;5120722;28;1913;-75
2021/05/14 04:24:50;;;;;;;;;;;;;;;21.58;30.28;97243.38;5119854;28;860;-74
2021/05/14 04:27:15;;;;;;;;;;;;;;;21.68;30.02;97238.56;5120358;28;937;-75
2021/05/14 04:29:41;;;;;;;;;;;;;;;21.61;30.17;97242.47;5120578;28;928;-75
2021/05/14 04:32:07;;;;;;;;;;;;;;;21.66;29.92;97247.50;5120982;28;657;-75
2021/05/14 04:34:32;;;;;;;;;;;;;;;21.71;29.90;97244.09;5120636;28;601;-75
2021/05/14 04:36:58;;;;;;;;;;;;;;;21.69;30.15;97249.41;5120563;28;674;-73
2021/05/14 04:39:23;;;;;;;;;;;;;;;21.61;30.08;97253.78;5120328;28;982;-76
2021/05/14 04:41:48;;;;;;;;;;;;;;;21.56;30.17;97260.81;5120164;28;1971;-75
2021/05/14 04:44:15;;;;;;;;;;;;;;;21.62;30.08;97261.00;5120379;28;954;-76
2021/05/14 04:46:41;;;;;;;;;;;;;;;21.60;30.06;97260.66;5120556;28;614;-75
2021/05/14 04:49:07;;;;;;;;;;;;;;;21.72;29.96;97268.31;5120657;28;645;-75
2021/05/14 04:51:32;;;;;;;;;;;;;;;21.67;29.97;97271.75;5120465;28;637;-75
2021/05/14 04:53:58;;;;;;;;;;;;;;;21.69;30.18;97271.25;5120173;28;841;-75
2021/05/14 04:56:24;;;;;;;;;;;;;;;21.70;30.18;97281.34;5102571;28;953;-75
2021/05/14 04:58:49;;;;;;;;;;;;;;;21.64;29.98;97277.53;5120218;28;1001;-75
2021/05/14 05:01:15;;;;;;;;;;;;;;;21.69;30.02;97274.09;5120378;28;1914;-75
2021/05/14 05:03:44;;;;;;;;;;;;;;;21.64;30.41;97277.53;5120428;28;669;-75
2021/05/14 05:06:10;;;;;;;;;;;;;;;21.71;30.12;97278.06;5102678;28;657;-75
2021/05/14 05:08:35;;;;;;;;;;;;;;;21.71;30.23;97278.06;5119987;28;890;-75
2021/05/14 05:11:01;;;;;;;;;;;;;;;21.59;30.22;97270.41;5120013;28;857;-75
2021/05/14 05:13:26;;;;;;;;;;;;;;;21.60;30.19;97280.47;5120603;28;913;-75
2021/05/14 05:15:52;;;;;;;;;;;;;;;21.74;30.13;97274.28;5120200;28;640;-76
2021/05/14 05:18:17;;;;;;;;;;;;;;;21.66;30.37;97272.19;5120623;28;684;-75
2021/05/14 05:20:42;;;;;;;;;;;;;;;21.71;30.08;97272.41;5120099;28;1977;-75
2021/05/14 05:23:08;;;;;;;;;;;;;;;21.70;30.39;97276.47;5119778;28;1062;-75
2021/05/14 05:25:33;;;;;;;;;;;;;;;21.79;30.12;97273.69;5120148;28;999;-75
2021/05/14 05:27:59;;;;;;;;;;;;;;;21.66;30.20;97277.84;5120306;28;826;-75
2021/05/14 05:30:24;;;;;;;;;;;;;;;21.79;29.79;97272.91;5120082;28;686;-75
2021/05/14 05:32:53;;;;;;;;;;;;;;;21.73;29.98;97286.88;5120145;28;661;-76
2021/05/14 05:35:18;;;;;;;;;;;;;;;21.71;29.92;97295.03;5120198;28;598;-75
2021/05/14 05:37:44;;;;;;;;;;;;;;;21.66;30.34;97284.31;5122777;28;984;-75
2021/05/14 05:40:09;;;;;;;;;;;;;;;21.70;30.15;97293.44;5123592;28;802;-75
2021/05/14 05:42:35;;;;;;;;;;;;;;;21.67;30.25;97290.78;5123624;28;1902;-75
2021/05/14 05:45:01;;;;;;;;;;;;;;;21.63;30.25;97302.22;5123688;28;734;-75
2021/05/14 05:47:29;;;;;;;;;;;;;;;21.70;30.22;97316.09;5123667;28;801;-75
2021/05/14 05:49:55;;;;;;;;;;;;;;;21.85;29.87;97305.03;5123609;28;697;-76
2021/05/14 05:52:21;;;;;;;;;;;;;;;21.71;30.04;97306.38;5123247;28;825;-75
2021/05/14 05:54:46;;;;;;;;;;;;;;;21.65;30.27;97308.19;5123096;28;929;-75
2021/05/14 05:57:11;;;;;;;;;;;;;;;21.69;29.95;97303.19;5123207;28;865;-76
2021/05/14 05:59:38;;;;;;;;;;;;;;;21.64;30.48;97288.84;5105902;28;1243;-75
2021/05/14 06:02:04;;;;;;;;;;;;;;;21.61;30.15;97290.59;5123137;28;1925;-76
2021/05/14 06:04:29;;;;;;;;;;;;;;;21.59;30.50;97287.41;5123212;28;590;-75
2021/05/14 06:06:55;;;;;;;;;;;;;;;21.62;30.48;97292.16;5122949;28;852;-76
2021/05/14 06:09:20;;;;;;;;;;;;;;;21.75;30.02;97289.22;5122742;28;875;-75
2021/05/14 06:11:46;;;;;;;;;;;;;;;21.77;30.12;97300.91;5122963;28;1024;-75
2021/05/14 06:14:11;;;;;;;;;;;;;;;21.70;30.31;97304.78;5123114;28;629;-75
2021/05/14 06:16:36;;;;;;;;;;;;;;;21.81;29.92;97302.34;5122955;28;625;-75
2021/05/14 06:19:09;;;;;;;;;;;;;;;21.65;30.18;97308.19;5122869;28;737;-75
2021/05/14 06:21:34;;;;;;;;;;;;;;;21.66;30.26;97301.31;5122486;28;1893;-75
2021/05/14 06:24:00;;;;;;;;;;;;;;;21.66;30.60;97304.13;5122541;28;859;-75
2021/05/14 06:26:25;;;;;;;;;;;;;;;21.69;30.30;97300.38;5122653;28;984;-75
2021/05/14 06:28:51;;;;;;;;;;;;;;;21.70;30.47;97299.09;5122784;28;609;-75
2021/05/14 06:31:16;;;;;;;;;;;;;;;21.62;30.71;97297.03;5122995;28;747;-75
2021/05/14 06:33:42;;;;;;;;;;;;;;;21.62;30.42;97306.31;5122918;28;645;-75
2021/05/14 06:36:07;;;;;;;;;;;;;;;21.69;30.26;97303.19;5122217;28;931;-75
2021/05/14 06:38:32;;;;;;;;;;;;;;;21.75;30.30;97306.22;5122386;28;903;-75
2021/05/14 06:41:00;;;;;;;;;;;;;;;21.70;30.30;97299.09;5122315;28;1962;-75
2021/05/14 06:43:25;;;;;;;;;;;;;;;21.68;30.72;97312.94;5122443;28;629;-75
2021/05/14 06:45:51;;;;;;;;;;;;;;;21.63;30.48;97310.72;5122313;28;601;-75
2021/05/14 06:48:16;;;;;;;;;;;;;;;21.73;30.57;97315.19;5121998;28;656;-75
2021/05/14 06:50:42;;;;;;;;;;;;;;;21.73;30.18;97320.84;5121947;28;1090;-75
2021/05/14 06:53:07;;;;;;;;;;;;;;;21.63;30.63;97312.75;5104374;28;1310;-75
2021/05/14 06:55:34;;;;;;;;;;;;;;;21.63;30.70;97319.22;5122302;28;860;-75
2021/05/14 06:57:59;;;;;;;;;;;;;;;21.69;30.58;97325.84;5121973;28;910;-75
2021/05/14 07:00:25;;;;;;;;;;;;;;;21.73;30.75;97320.84;5121958;28;1909;-75
2021/05/14 07:02:50;;;;;;;;;;;;;;;21.60;30.69;97328.63;5122140;28;582;-75
2021/05/14 07:05:16;;;;;;;;;;;;;;;21.72;30.44;97330.59;5104025;28;877;-76
2021/05/14 07:07:42;;;;;;;;;;;;;;;21.73;30.50;97320.84;5103512;28;930;-75
2021/05/14 07:10:07;;;;;;;;;;;;;;;21.79;30.47;97338.03;5104359;28;935;-75
2021/05/14 07:12:35;;;;;;;;;;;;;;;21.79;30.55;97327.50;5122216;28;685;-75
2021/05/14 07:15:00;;;;;;;;;;;;;;;21.78;30.32;97330.78;5122028;28;598;-75
2021/05/14 07:17:26;;;;;;;;;;;;;;;21.85;30.50;97333.34;5121814;28;657;-75
2021/05/14 07:19:51;;;;;;;;;;;;;;;21.81;30.47;97338.34;5103823;28;984;-75
2021/05/14 07:22:17;;;;;;;;;;;;;;;21.73;30.75;97343.50;5121217;28;1894;-75
2021/05/14 07:24:42;;;;;;;;;;;;;;;21.67;30.85;97345.34;5121558;28;861;-75
2021/05/14 07:27:08;;;;;;;;;;;;;;;21.78;30.68;97345.72;5121657;28;654;-75
2021/05/14 07:29:33;;;;;;;;;;;;;;;21.64;30.88;97346.25;5121458;28;689;-75
2021/05/14 07:31:59;;;;;;;;;;;;;;;21.93;30.47;97351.66;5121502;28;641;-75
2021/05/14 07:34:24;;;;;;;;;;;;;;;21.95;30.12;97354.81;5121228;28;1007;-75
2021/05/14 07:36:50;;;;;;;;;;;;;;;21.82;30.72;97349.22;5121179;28;957;-75
2021/05/14 07:39:15;;;;;;;;;;;;;;;21.92;30.30;97343.63;5121206;28;921;-75
2021/05/14 07:41:40;;;;;;;;;;;;;;;21.90;30.37;97355.41;5121415;28;1898;-76
2021/05/14 07:44:06;;;;;;;;;;;;;;;21.85;30.56;97351.13;5121282;28;681;-75
2021/05/14 07:46:37;;;;;;;;;;;;;;;21.83;30.42;97347.97;5121178;28;689;-75
2021/05/14 07:49:06;;;;;;;;;;;;;;;21.78;30.50;97348.56;5120851;28;976;-75
2021/05/14 07:51:31;;;;;;;;;;;;;;;21.63;30.75;97364.50;5120972;28;930;-76
2021/05/14 07:54:06;;;;;;;;;;;;;;;21.72;31.03;97353.25;5120994;28;931;-75
2021/05/14 07:56:31;;;;;;;;;;;;;;;21.77;30.73;97352.66;5121252;28;649;-75
2021/05/14 07:58:57;;;;;;;;;;;;;;;21.82;30.88;97359.78;5120154;28;952;-75
2021/05/14 08:01:22;;;;;;;;;;;;;;;21.74;30.67;97359.22;5121132;28;1905;-76
2021/05/14 08:03:47;;;;;;;;;;;;;;;21.76;30.61;97359.56;5120612;28;871;-75
2021/05/14 08:06:13;;;;;;;;;;;;;;;21.86;30.63;97357.56;5120600;28;902;-75
2021/05/14 08:08:40;;;;;;;;;;;;;;;21.75;31.01;97345.84;5120975;28;959;-76
2021/05/14 08:11:06;;;;;;;;;;;;;;;21.82;30.54;97357.72;5121010;28;609;-75
2021/05/14 08:13:31;;;;;;;;;;;;;;;21.72;30.77;97350.41;5120762;28;721;-75
2021/05/14 08:15:57;;;;;;;;;;;;;;;21.78;30.64;97359.91;5120797;28;725;-75
2021/05/14 08:18:22;;;;;;;;;;;;;;;21.76;30.81;97359.56;5120578;28;842;-75
2021/05/14 08:20:48;;;;;;;;;;;;;;;21.76;30.61;97359.56;5120578;28;1969;-75
2021/05/14 08:23:15;;;;;;;;;;;;;;;21.72;30.63;97356.09;5120642;28;856;-75
2021/05/14 08:25:40;;;;;;;;;;;;;;;21.74;30.61;97352.78;5121110;28;648;-75
2021/05/14 08:28:06;;;;;;;;;;;;;;;21.76;30.66;97348.25;5120629;28;623;-75
2021/05/14 08:30:32;;;;;;;;;;;;;;;21.81;30.22;97356.16;5102952;28;613;-75
2021/05/14 08:32:57;;;;;;;;;;;;;;;21.80;30.56;97354.53;5120672;28;1061;-75
2021/05/14 08:35:23;;;;;;;;;;;;;;;21.83;30.42;97352.84;5120200;28;1107;-75
2021/05/14 08:37:48;;;;;;;;;;;;;;;21.83;30.35;97350.81;5120854;28;998;-75
2021/05/14 08:40:14;;;;;;;;;;;;;;;21.67;30.65;97356.69;5120613;28;598;-75
2021/05/14 08:42:40;;;;;;;;;;;;;;;21.69;30.63;97359.03;5121127;28;1902;-75
2021/05/14 08:45:07;;;;;;;;;;;;;;;21.83;30.52;97364.97;5120480;28;660;-75
2021/05/14 08:47:33;;;;;;;;;;;;;;;21.72;30.44;97363.78;5120206;28;947;-75
2021/05/14 08:49:59;;;;;;;;;;;;;;;21.75;30.59;97368.50;5102978;28;869;-75
2021/05/14 08:52:25;;;;;;;;;;;;;;;21.68;30.81;97363.13;5103166;28;843;-75
2021/05/14 08:54:50;;;;;;;;;;;;;;;21.84;30.45;97365.75;5102865;28;705;-75
2021/05/14 08:57:15;;;;;;;;;;;;;;;21.87;30.27;97364.06;5120579;28;677;-75
2021/05/14 08:59:41;;;;;;;;;;;;;;;22.07;30.17;97355.97;5120134;28;1035;-75
2021/05/14 09:02:07;;;;;;;;;;;;;;;21.89;30.42;97364.38;5102254;28;1906;-76
2021/05/14 09:04:33;;;;;;;;;;;;;;;21.95;30.12;97354.00;5120192;28;872;-75
2021/05/14 09:06:59;;;;;;;;;;;;;;;21.84;30.40;97352.38;5120190;28;914;-75
2021/05/14 09:09:24;;;;;;;;;;;;;;;21.80;30.53;97359.44;5102927;28;649;-75
2021/05/14 09:11:52;;;;;;;;;;;;;;;21.94;30.27;97358.91;5123683;28;674;-75
2021/05/14 09:14:29;;;;;;;;;;;;;;;21.81;30.27;97366.66;5124295;28;673;-75
2021/05/14 09:16:55;;;;;;;;;;;;;;;21.75;30.31;97377.78;5123897;28;1027;-75
2021/05/14 09:19:30;;;;;;;;;;;;;;;21.75;30.17;97380.63;5123709;28;922;-76
2021/05/14 09:22:08;;;;;;;;;;;;;;;21.59;30.42;97381.63;5106304;28;1977;-76
2021/05/14 09:24:34;;;;;;;;;;;;;;;21.55;30.51;97383.00;5106224;28;812;-75
2021/05/14 09:26:59;;;;;;;;;;;;;;;21.63;30.54;97378.66;5124021;28;677;-75
2021/05/14 09:29:37;;;;;;;;;;;;;;;21.55;30.23;97378.16;5124108;28;631;-75
2021/05/14 09:32:23;;;;;;;;;;;;;;;21.55;30.16;97377.31;5105881;28;924;-75
2021/05/14 09:34:52;;;;;;;;;;;;;;;21.65;30.17;97376.16;5122978;28;923;-75
2021/05/14 09:37:18;;;;;;;;;;;;;;;21.59;29.96;97375.16;5123742;28;668;-75
2021/05/14 09:39:44;;;;;;;;;;;;;;;21.56;30.08;97382.56;5124095;28;597;-75
2021/05/14 09:42:09;;;;;;;;;;;;;;;21.48;30.50;97372.72;5123588;28;1897;-75
2021/05/14 09:44:35;;;;;;;;;;;;;;;21.67;29.72;97373.66;5123553;28;609;-75
2021/05/14 09:47:00;;;;;;;;;;;;;;;21.64;29.53;97377.41;5123393;28;994;-75
2021/05/14 09:49:28;;;;;;;;;;;;;;;21.56;29.86;97379.72;5105626;28;960;-75
2021/05/14 09:51:53;;;;;;;;;;;;;;;21.63;29.80;97373.00;5106008;28;835;-75
2021/05/14 09:54:45;;;;;;;;;;;;;;;21.53;30.11;97380.63;5123403;28;790;-76
2021/05/14 10:00:05;;;;;;;;;;;;;;;21.49;29.76;97374.28;5123539;28;996;-75
2021/05/14 10:02:33;;;;;;;;;;;;;;;21.48;29.84;97371.94;5105851;28;1981;-75
2021/05/14 10:04:59;;;;;;;;;;;;;;;21.58;29.46;97365.09;5105556;28;898;-75
2021/05/14 10:07:25;;;;;;;;;;;;;;;21.56;29.69;97367.59;5105632;28;960;-75
2021/05/14 10:09:53;;;;;;;;;;;;;;;21.57;29.54;97363.53;5123069;28;686;-75
2021/05/14 10:12:19;;;;;;;;;;;;;;;21.55;29.62;97360.34;5105918;28;660;-75
2021/05/14 10:14:45;;;;;;;;;;;;;;;21.61;29.76;97358.53;5122938;28;593;-75
2021/05/14 10:17:10;;;;;;;;;;;;;;;21.63;29.34;97355.22;5122927;28;954;-75
2021/05/14 10:19:36;;;;;;;;;;;;;;;21.62;29.52;97348.00;5122736;28;881;-75
2021/05/14 10:22:02;;;;;;;;;;;;;;;21.70;29.45;97344.41;5121816;28;1967;-75
2021/05/14 10:24:38;;;;;;;;;;;;;;;21.55;29.77;97360.34;5122827;28;675;-75
2021/05/14 10:27:22;;;;;;;;;;;;;;;21.43;29.83;97367.66;5122817;28;709;-75
2021/05/14 10:30:07;;;;;;;;;;;;;;;21.67;29.49;97344.56;5122745;28;654;-75
2021/05/14 10:32:48;;;;;;;;;;;;;;;21.74;29.60;97361.28;5120321;28;1108;-75
2021/05/14 10:35:14;;;;;;;;;;;;;;;21.62;29.80;97377.09;5122266;28;867;-75
2021/05/14 10:37:58;;;;;;;;;;;;;;;21.53;29.62;97362.84;5122649;28;630;-75
2021/05/14 10:40:33;;;;;;;;;;;;;;;21.66;29.37;97366.44;5122484;28;642;-75
2021/05/14 10:43:02;;;;;;;;;;;;;;;21.52;29.43;97367.72;5122441;28;844;-75
2021/05/14 10:45:40;;;;;;;;;;;;;;;21.43;29.71;97376.13;5122575;28;680;-75
2021/05/14 10:48:27;;;;;;;;;;;;;;;21.51;29.70;97359.72;5122201;28;1076;-75
2021/05/14 10:50:53;;;;;;;;;;;;;;;21.47;29.53;97361.88;5107134;28;956;-75
2021/05/14 10:53:29;;;;;;;;;;;;;;;21.54;29.85;97365.22;5122528;28;724;-75
2021/05/14 10:55:55;;;;;;;;;;;;;;;21.46;29.57;97360.28;5105582;28;693;-75
2021/05/14 10:58:39;;;;;;;;;;;;;;;21.58;29.49;97360.22;5122196;28;991;-75
2021/05/14 11:01:05;;;;;;;;;;;;;;;21.42;30.00;97357.59;5122060;28;1898;-76
2021/05/14 11:03:31;;;;;;;;;;;;;;;21.42;29.85;97362.47;5122141;28;1026;-75
2021/05/14 11:06:09;;;;;;;;;;;;;;;21.51;29.57;97351.22;5121959;28;897;-75
2021/05/14 11:08:34;;;;;;;;;;;;;;;21.50;29.44;97356.09;5122228;28;778;-75
2021/05/14 11:11:03;;;;;;;;;;;;;;;21.54;29.49;97364.44;5121919;28;643;-75
2021/05/14 11:13:53;;;;;;;;;;;;;;;21.59;29.50;97355.34;5121945;28;638;-74
2021/05/14 11:16:54;;;;;;;;;;;;;;;21.38;30.03;97350.47;5121725;28;605;-75
2021/05/14 11:19:19;;;;;;;;;;;;;;;21.40;29.76;97347.97;5079503;28;962;-75
2021/05/14 11:21:54;;;;;;;;;;;;;;;21.56;29.42;97357.06;5112973;28;1893;-75
2021/05/14 11:24:26;;;;;;;;;;;;;;;21.42;29.85;97356.78;5121818;28;625;-75
2021/05/14 11:27:02;;;;;;;;;;;;;;;21.50;29.51;97352.44;5121796;28;797;-75
2021/05/14 11:29:31;;;;;;;;;;;;;;;21.43;29.88;97355.53;5121683;28;663;-75
2021/05/14 11:32:11;;;;;;;;;;;;;;;21.52;29.25;97355.63;5121505;28;768;-75
2021/05/14 11:34:49;;;;;;;;;;;;;;;21.52;29.30;97361.28;5121653;28;950;-75
2021/05/14 11:37:17;;;;;;;;;;;;;;;21.51;29.50;97365.38;5121162;28;878;-75
2021/05/14 11:39:42;;;;;;;;;;;;;;;21.90;29.72;97360.28;5121339;28;696;-75
2021/05/14 11:42:14;;;;;;;;;;;;;;;22.00;30.05;97359.06;5121204;28;1897;-75
2021/05/14 11:44:52;;;;;;;;;;;;;;;22.16;30.28;97356.03;5103778;28;802;-75
2021/05/14 11:47:17;;;;;;;;;;;;;;;22.28;30.31;97349.50;5137866;27;1164;-75
2021/05/14 11:49:42;;;;;;;;;;;;;;;22.01;30.45;97352.94;5120940;28;1012;-75
2021/05/14 11:52:08;;;;;;;;;;;;;;;21.81;30.67;97350.50;5120868;28;834;-75
2021/05/14 11:54:34;;;;;;;;;;;;;;;21.79;30.43;97363.50;5103742;28;896;-75
2021/05/14 11:57:00;;;;;;;;;;;;;;;21.72;30.23;97364.56;5121190;28;643;-75
2021/05/14 11:59:25;;;;;;;;;;;;;;;21.61;30.61;97367.03;5121133;28;899;-75
2021/05/14 12:01:51;;;;;;;;;;;;;;;21.62;30.41;97368.59;5121014;28;1909;-75
2021/05/14 12:04:17;;;;;;;;;;;;;;;21.53;30.30;97363.66;5120647;28;1010;-75
2021/05/14 12:06:46;;;;;;;;;;;;;;;21.66;30.03;97349.44;5120426;28;932;-75
2021/05/14 12:09:12;;;;;;;;;;;;;;;21.62;30.09;97351.59;5120579;28;1034;-74
2021/05/14 12:11:38;;;;;;;;;;;;;;;21.60;30.27;97356.91;5120600;28;630;-75
2021/05/14 12:14:03;;;;;;;;;;;;;;;21.58;30.31;97348.13;5120640;28;693;-75
2021/05/14 12:16:29;;;;;;;;;;;;;;;21.69;29.89;97362.66;5103367;28;793;-74
2021/05/14 12:18:54;;;;;;;;;;;;;;;21.63;29.93;97367.34;5102591;28;951;-75
2021/05/14 12:21:26;;;;;;;;;;;;;;;21.59;29.79;97369.50;5120518;28;1992;-74
2021/05/14 12:23:52;;;;;;;;;;;;;;;21.51;30.24;97365.38;5102643;28;1165;-74
2021/05/14 12:26:17;;;;;;;;;;;;;;;21.61;29.86;97374.72;5120321;28;661;-75
2021/05/14 12:28:45;;;;;;;;;;;;;;;21.53;29.79;97371.34;5120688;28;752;-74
2021/05/14 12:31:12;;;;;;;;;;;;;;;21.50;29.85;97383.56;5120757;28;655;-75
2021/05/14 12:33:50;;;;;;;;;;;;;;;21.46;30.32;97382.94;5120124;28;869;-74
2021/05/14 12:36:20;;;;;;;;;;;;;;;21.47;30.31;97376.03;5120162;28;805;-74
2021/05/14 12:38:47;;;;;;;;;;;;;;;21.60;30.02;97385.22;5120627;28;633;-74
2021/05/14 12:41:22;;;;;;;;;;;;;;;21.48;29.79;97384.03;5102640;28;1901;-74
2021/05/14 12:43:47;;;;;;;;;;;;;;;21.59;29.69;97369.50;5120386;28;606;-74
2021/05/14 12:46:13;;;;;;;;;;;;;;;21.43;30.03;97381.00;5122808;28;709;-75
2021/05/14 12:48:38;;;;;;;;;;;;;;;21.48;29.65;97378.38;5124180;28;939;-75
2021/05/14 12:51:04;;;;;;;;;;;;;;;21.45;29.75;97372.84;5106483;28;929;-75
2021/05/14 12:53:29;;;;;;;;;;;;;;;21.47;30.01;97361.88;5124300;28;840;-75
2021/05/14 12:55:55;;;;;;;;;;;;;;;21.49;29.57;97373.50;5124361;28;664;-75
2021/05/14 12:58:20;;;;;;;;;;;;;;;21.76;29.88;97376.56;5106684;28;1001;-75
2021/05/14 13:00:46;;;;;;;;;;;;;;;21.97;30.26;97368.53;5124142;28;1968;-75
2021/05/14 13:03:11;;;;;;;;;;;;;;;22.18;30.10;97364.88;5123862;28;946;-75
2021/05/14 13:05:40;;;;;;;;;;;;;;;22.30;30.13;97358.31;5124074;28;903;-75
2021/05/14 13:08:08;;;;;;;;;;;;;;;22.07;30.36;97364.47;5123935;28;1113;-75
2021/05/14 13:10:48;;;;;;;;;;;;;;;21.78;30.66;97368.38;5124047;28;621;-75
2021/05/14 13:13:15;;;;;;;;;;;;;;;21.57;30.82;97380.50;5123978;28;747;-75